Time;durP1;ratioP1;P1;durP2;ratioP2;P2;SDS_P1;SDS_P2;PMS_P1;PMS_P2;Temp;Humidity;BMP_temperature;BMP_pressure;BME280_temperature;BME280_humidity;BME280_pressure;Samples;Min_cycle;Max_cycle;Signal;HPM_P1;HPM_P2
2022/07/03 00:01:24;;;;;;;1.13;1.00;;;;;;;23.56;53.29;93711.84;4953700;28;20061;-94
2022/07/03 00:03:49;;;;;;;1.08;0.98;;;;;;;23.54;53.09;93716.44;4954942;28;20038;-94
2022/07/03 00:06:15;;;;;;;1.20;1.00;;;;;;;23.54;53.09;93711.66;4954070;28;20069;-93
2022/07/03 00:08:41;;;;;;;1.20;1.10;;;;;;;23.53;52.74;93721.19;4938199;28;20043;-94
2022/07/03 00:11:06;;;;;;;0.98;0.80;;;;;;;23.53;53.08;93718.44;4944194;28;20043;-94
2022/07/03 00:13:34;;;;;;;1.20;1.10;;;;;;;23.53;52.92;93712.19;4955708;28;20524;-95
2022/07/03 00:16:04;;;;;;;1.20;1.10;;;;;;;23.53;53.11;93715.69;4958294;28;20058;-94
2022/07/03 00:18:29;;;;;;;1.77;1.17;;;;;;;23.53;53.12;93717.69;4975596;28;20046;-93
2022/07/03 00:21:01;;;;;;;1.30;1.20;;;;;;;23.51;53.06;93711.94;4982226;28;20029;-95
2022/07/03 00:23:28;;;;;;;1.15;0.95;;;;;;;23.51;53.00;93718.22;4980833;28;20416;-94
2022/07/03 00:25:54;;;;;;;1.52;1.20;;;;;;;23.53;52.84;93718.44;4982612;28;20037;-94
2022/07/03 00:28:20;;;;;;;1.00;0.88;;;;;;;23.51;52.92;93711.94;4982712;28;20049;-95
2022/07/03 00:30:48;;;;;;;1.15;1.05;;;;;;;23.50;52.95;93711.19;4974747;28;20030;-94
2022/07/03 00:33:17;;;;;;;1.10;0.95;;;;;;;23.50;53.04;93711.19;4973750;28;20034;-95
2022/07/03 00:35:43;;;;;;;1.73;1.10;;;;;;;23.50;53.26;93711.19;4967758;28;20034;-95
2022/07/03 00:38:10;;;;;;;1.50;1.20;;;;;;;23.50;52.92;93710.47;4978183;28;20446;-96
2022/07/03 00:40:36;;;;;;;1.40;1.10;;;;;;;23.50;53.24;93718.75;4972393;28;20495;-94
2022/07/03 00:43:02;;;;;;;1.48;1.00;;;;;;;23.51;53.14;93714.72;4992066;28;20033;-94
2022/07/03 00:45:27;;;;;;;1.02;0.93;;;;;;;23.49;53.21;93712.47;4957032;28;20093;-93
2022/07/03 00:47:53;;;;;;;1.42;1.13;;;;;;;23.49;53.25;93709.72;4925015;28;20425;-94
2022/07/03 00:50:18;;;;;;;0.82;0.80;;;;;;;23.48;53.03;93710.25;4937960;28;20039;-95
2022/07/03 00:52:46;;;;;;;1.40;1.30;;;;;;;23.49;53.16;93714.50;4930581;28;20418;-93
2022/07/03 00:55:15;;;;;;;1.30;1.20;;;;;;;23.47;53.09;93708.78;4936656;28;20165;-93
2022/07/03 00:57:45;;;;;;;1.23;1.13;;;;;;;23.48;53.07;93707.50;4927448;28;20042;-93
2022/07/03 01:00:12;;;;;;;1.15;1.05;;;;;;;23.47;53.40;93708.78;4922648;28;20031;-96
2022/07/03 01:02:40;;;;;;;1.05;1.02;;;;;;;23.47;53.23;93698.47;4925563;28;20039;-94
2022/07/03 01:05:15;;;;;;;1.02;0.90;;;;;;;23.47;53.01;93704.00;4953700;28;20509;-94
2022/07/03 01:07:48;;;;;;;1.30;1.15;;;;;;;23.45;53.08;93706.56;4933956;28;20047;-94
2022/07/03 01:10:36;;;;;;;1.23;1.13;;;;;;;23.46;53.03;93704.53;4914360;28;20138;-94
2022/07/03 01:13:17;;;;;;;1.70;1.13;;;;;;;23.47;53.17;93698.47;4935136;29;20462;-94
2022/07/03 01:16:03;;;;;;;1.63;1.30;;;;;;;23.44;53.16;93699.56;4956728;28;20041;-94
2022/07/03 01:18:46;;;;;;;1.40;0.90;;;;;;;23.44;52.98;93688.50;4985293;28;20042;-93
2022/07/03 01:21:15;;;;;;;1.67;1.17;;;;;;;23.45;53.06;93683.72;4951552;28;20038;-95
2022/07/03 01:24:03;;;;;;;3.00;1.25;;;;;;;23.44;53.04;93696.06;4990147;28;20031;-95
2022/07/03 01:26:30;;;;;;;1.20;1.10;;;;;;;23.44;52.86;93683.00;4994124;28;20062;-95
2022/07/03 01:28:58;;;;;;;1.52;1.20;;;;;;;23.43;53.06;93680.78;4954008;28;20113;-94
2022/07/03 01:31:24;;;;;;;1.65;1.35;;;;;;;23.43;53.20;93678.75;4954458;28;20044;-95
2022/07/03 01:33:50;;;;;;;1.25;1.00;;;;;;;23.43;52.72;93681.50;4956852;28;20034;-95
2022/07/03 01:36:16;;;;;;;1.20;0.90;;;;;;;23.45;52.98;93686.50;4961339;28;20041;-94
2022/07/03 01:38:42;;;;;;;1.27;1.15;;;;;;;23.44;52.98;93687.78;4955016;28;20026;-94
2022/07/03 01:41:08;;;;;;;1.20;1.10;;;;;;;23.44;52.72;93676.72;4972346;28;20050;-95
2022/07/03 01:43:46;;;;;;;1.48;0.98;;;;;;;23.43;53.08;93684.28;4966840;28;20042;-95
2022/07/03 01:46:11;;;;;;;1.30;1.05;;;;;;;23.43;52.78;93684.28;4946905;28;20089;-94
2022/07/03 01:48:37;;;;;;;1.17;1.00;;;;;;;23.42;52.97;93682.78;4966966;28;20038;-95
2022/07/03 01:51:02;;;;;;;1.10;1.00;;;;;;;23.42;52.95;93677.28;5003244;28;20030;-95
2022/07/03 01:53:29;;;;;;;1.10;1.00;;;;;;;23.42;52.74;93669.00;4980950;28;20868;-94
2022/07/03 01:56:00;;;;;;;1.00;1.00;;;;;;;23.41;52.90;93677.81;4987292;28;20037;-94
2022/07/03 01:58:28;;;;;;;1.70;1.27;;;;;;;23.42;53.04;93687.56;4974902;28;20069;-95
2022/07/03 02:01:10;;;;;;;1.20;1.10;;;;;;;23.39;53.09;93683.13;4985862;28;20079;-95
2022/07/03 02:03:42;;;;;;;2.00;1.25;;;;;;;23.39;53.00;93678.34;4997195;28;20037;-93
2022/07/03 02:06:13;;;;;;;1.08;0.98;;;;;;;23.39;52.91;93681.09;4976604;28;20165;-95
2022/07/03 02:08:44;;;;;;;1.27;1.10;;;;;;;23.39;52.84;93675.59;4973773;28;20121;-96
2022/07/03 02:11:17;;;;;;;1.05;1.00;;;;;;;23.38;53.01;93671.38;4992660;28;20064;-94
2022/07/03 02:14:17;;;;;;;1.13;0.93;;;;;;;23.38;52.84;93673.38;4976096;28;20056;-93
2022/07/03 02:17:01;;;;;;;1.45;1.33;;;;;;;23.38;53.03;93679.66;4984329;28;20034;-94
2022/07/03 02:19:49;;;;;;;1.20;0.93;;;;;;;23.37;52.98;93671.91;4989425;28;20065;-94
2022/07/03 02:22:17;;;;;;;1.35;1.23;;;;;;;23.37;53.12;93669.88;4996654;28;20089;-94
2022/07/03 02:24:44;;;;;;;1.33;1.15;;;;;;;23.38;52.92;93676.16;4980775;28;20029;-95
2022/07/03 02:27:17;;;;;;;1.20;1.10;;;;;;;23.37;52.99;93685.69;5000839;28;20034;-95
2022/07/03 02:30:06;;;;;;;1.27;1.00;;;;;;;23.37;52.90;93680.19;5007598;28;20053;-94
2022/07/03 02:32:47;;;;;;;1.33;1.10;;;;;;;23.36;53.10;93678.69;4981103;28;20044;-95
2022/07/03 02:35:17;;;;;;;1.35;1.10;;;;;;;23.36;52.61;93684.97;4968140;28;20034;-94
2022/07/03 02:37:45;;;;;;;1.27;1.17;;;;;;;23.35;52.89;93675.19;5003714;28;20523;-94
2022/07/03 02:40:25;;;;;;;1.10;1.00;;;;;;;23.35;52.81;93685.50;4995961;28;20037;-94
2022/07/03 02:43:11;;;;;;;1.10;1.00;;;;;;;23.36;52.82;93679.44;4992693;28;20112;-94
2022/07/03 02:45:55;;;;;;;1.20;1.10;;;;;;;23.35;52.97;93677.22;5012119;28;20040;-94
2022/07/03 02:48:34;;;;;;;1.10;1.00;;;;;;;23.35;53.00;93668.94;4956733;28;20057;-94
2022/07/03 02:51:04;;;;;;;1.65;1.27;;;;;;;23.34;52.96;93675.72;4980505;28;20044;-95
2022/07/03 02:53:35;;;;;;;0.80;0.80;;;;;;;23.35;52.91;93675.19;4966463;28;20064;-94
2022/07/03 02:56:05;;;;;;;1.83;0.98;;;;;;;23.35;53.12;93685.50;4986838;28;20041;-94
2022/07/03 02:58:40;;;;;;;1.27;1.17;;;;;;;23.34;53.02;93681.25;4974362;28;20376;-95
2022/07/03 03:01:13;;;;;;;1.15;1.05;;;;;;;23.32;52.73;93679.03;5001874;28;20096;-95
2022/07/03 03:03:41;;;;;;;1.15;0.95;;;;;;;23.34;52.93;93684.00;4965509;28;20044;-95
2022/07/03 03:06:13;;;;;;;1.63;0.90;;;;;;;23.32;52.69;93681.78;4975472;28;20037;-95
2022/07/03 03:08:52;;;;;;;2.50;1.13;;;;;;;23.33;52.72;93688.03;4965892;28;20037;-94
2022/07/03 03:11:24;;;;;;;1.08;0.95;;;;;;;23.33;52.81;93691.53;4975510;28;20464;-94
2022/07/03 03:13:50;;;;;;;1.38;0.95;;;;;;;23.35;52.91;93689.00;4995266;28;20425;-94
2022/07/03 03:16:16;;;;;;;1.30;0.90;;;;;;;23.33;52.87;93688.03;4961969;28;20473;-95
2022/07/03 03:18:41;;;;;;;2.50;1.08;;;;;;;23.33;53.07;93690.81;4972776;28;20113;-94
2022/07/03 03:21:10;;;;;;;0.98;0.90;;;;;;;23.31;52.77;93685.81;4985586;28;20124;-94
2022/07/03 03:23:48;;;;;;;1.27;0.93;;;;;;;23.33;52.74;93691.53;4965217;28;20359;-94
2022/07/03 03:26:15;;;;;;;1.15;1.05;;;;;;;23.33;52.76;93690.81;5007198;28;20038;-95
2022/07/03 03:28:40;;;;;;;1.38;1.25;;;;;;;23.35;52.94;93693.75;4966419;28;20480;-94
2022/07/03 03:31:09;;;;;;;1.55;0.95;;;;;;;23.32;53.03;93701.09;4984611;28;20096;-94
2022/07/03 03:33:41;;;;;;;1.25;0.90;;;;;;;23.34;52.94;93704.06;4974027;28;20378;-94
2022/07/03 03:36:09;;;;;;;1.17;0.90;;;;;;;23.35;52.72;93715.84;4962664;28;20053;-93
2022/07/03 03:38:34;;;;;;;1.08;0.98;;;;;;;23.37;52.97;93713.28;4973414;28;20026;-94
2022/07/03 03:41:01;;;;;;;1.20;1.10;;;;;;;23.37;52.88;93707.78;4988825;28;20091;-95
2022/07/03 03:43:28;;;;;;;1.25;1.00;;;;;;;23.39;52.65;93711.44;4995877;28;20045;-95
2022/07/03 03:45:54;;;;;;;1.20;1.02;;;;;;;23.40;52.53;93712.19;4978948;28;20069;-94
2022/07/03 03:48:19;;;;;;;1.48;1.02;;;;;;;23.41;52.54;93721.94;4989847;28;20061;-94
2022/07/03 03:50:45;;;;;;;1.15;1.00;;;;;;;23.41;52.87;93728.22;4966841;28;20037;-94
2022/07/03 03:53:11;;;;;;;1.20;1.10;;;;;;;23.43;52.73;93730.44;5002979;28;20033;-95
2022/07/03 03:55:37;;;;;;;0.80;0.80;;;;;;;23.43;52.55;93727.69;4980217;28;20026;-94
2022/07/03 03:58:04;;;;;;;1.58;1.08;;;;;;;23.44;52.46;93729.16;4963185;28;20045;-96
2022/07/03 04:00:30;;;;;;;1.02;1.00;;;;;;;23.43;52.57;93733.94;4980640;28;20049;-94
2022/07/03 04:02:55;;;;;;;0.70;0.70;;;;;;;23.43;52.56;93739.47;4970883;28;20037;-94
2022/07/03 04:05:21;;;;;;;1.35;1.10;;;;;;;23.47;52.21;93742.63;4986647;28;20061;-94
2022/07/03 04:07:46;;;;;;;1.13;0.98;;;;;;;23.47;52.35;93739.13;4964272;28;20046;-94
2022/07/03 04:10:12;;;;;;;1.45;1.20;;;;;;;23.44;52.44;93729.91;4991670;28;20559;-94
2022/07/03 04:12:38;;;;;;;0.80;0.80;;;;;;;23.45;52.41;93739.66;4957449;28;20082;-94
2022/07/03 04:15:04;;;;;;;0.88;0.88;;;;;;;23.49;52.41;93739.34;4944385;28;20380;-96
2022/07/03 04:17:30;;;;;;;1.52;1.08;;;;;;;23.47;52.09;93741.88;4949212;28;20374;-94
2022/07/03 04:19:55;;;;;;;1.35;1.05;;;;;;;23.47;52.70;93742.63;4956007;28;20072;-95
2022/07/03 04:22:21;;;;;;;0.88;0.80;;;;;;;23.50;52.33;93738.81;4940348;28;20042;-94
2022/07/03 04:24:46;;;;;;;2.25;1.08;;;;;;;23.48;52.45;93735.84;4968216;28;20042;-95
2022/07/03 04:27:12;;;;;;;1.02;0.93;;;;;;;23.47;52.38;93739.88;4967906;28;20035;-94
2022/07/03 04:29:37;;;;;;;0.70;0.70;;;;;;;23.47;52.46;93750.91;4950288;28;20042;-96
2022/07/03 04:32:03;;;;;;;1.25;1.00;;;;;;;23.50;52.43;93743.56;4955212;28;20174;-95
2022/07/03 04:34:28;;;;;;;1.00;0.90;;;;;;;23.49;52.10;93742.09;4940891;28;20508;-94
2022/07/03 04:36:54;;;;;;;0.80;0.80;;;;;;;23.49;52.40;93748.34;4956065;28;20047;-94
2022/07/03 04:39:21;;;;;;;1.52;1.10;;;;;;;23.49;52.62;93751.13;4955090;28;20069;-95
2022/07/03 04:41:46;;;;;;;1.45;1.15;;;;;;;23.48;52.57;93752.38;4955828;28;20545;-95
2022/07/03 04:44:11;;;;;;;1.30;1.10;;;;;;;23.47;52.48;93750.16;4970491;28;20061;-94
2022/07/03 04:46:37;;;;;;;1.40;0.88;;;;;;;23.49;52.34;93755.88;4977027;28;20084;-95
2022/07/03 04:49:03;;;;;;;0.80;0.80;;;;;;;23.47;52.47;93752.94;4969080;28;20510;-94
2022/07/03 04:51:28;;;;;;;1.38;1.00;;;;;;;23.48;52.72;93751.66;4972550;28;20061;-94
2022/07/03 04:53:54;;;;;;;1.00;0.90;;;;;;;23.47;52.46;93752.94;4962913;28;20042;-94
2022/07/03 04:56:19;;;;;;;0.77;0.77;;;;;;;23.47;52.22;93764.69;4983539;28;20551;-95
2022/07/03 04:58:45;;;;;;;1.00;1.00;;;;;;;23.47;52.29;93761.19;4967717;28;20479;-94
2022/07/03 05:01:11;;;;;;;0.82;0.80;;;;;;;23.48;52.53;93759.94;4971455;28;20057;-95
2022/07/03 05:03:37;;;;;;;0.90;0.90;;;;;;;23.46;52.39;93759.72;4993285;28;20034;-94
2022/07/03 05:06:04;;;;;;;1.05;0.95;;;;;;;23.48;52.51;93770.97;4965556;28;20681;-95
2022/07/03 05:08:29;;;;;;;0.80;0.80;;;;;;;23.50;52.61;93760.13;4977966;28;20044;-94
2022/07/03 05:10:55;;;;;;;1.00;0.95;;;;;;;23.51;52.31;93769.91;4993789;28;20042;-94
2022/07/03 05:13:21;;;;;;;0.80;0.80;;;;;;;23.53;52.51;93773.63;4982610;28;20037;-95
2022/07/03 05:15:46;;;;;;;1.00;0.85;;;;;;;23.52;52.69;93774.91;4978838;28;20038;-95
2022/07/03 05:18:13;;;;;;;1.20;1.10;;;;;;;23.51;52.07;93776.16;4979067;28;20041;-95
2022/07/03 05:20:38;;;;;;;0.80;0.80;;;;;;;23.51;52.57;93775.41;4981337;28;20038;-95
2022/07/03 05:23:04;;;;;;;0.75;0.70;;;;;;;23.51;52.33;93773.41;4979066;28;20119;-94
2022/07/03 05:25:30;;;;;;;1.00;0.90;;;;;;;23.53;52.57;93776.41;4992290;28;20262;-95
2022/07/03 05:27:56;;;;;;;1.02;0.93;;;;;;;23.54;52.35;93780.63;4983766;28;20107;-95
2022/07/03 05:30:22;;;;;;;0.73;0.73;;;;;;;23.54;52.43;93785.41;4978461;28;20484;-95
2022/07/03 05:32:48;;;;;;;1.15;0.70;;;;;;;23.55;52.28;93782.13;4971592;28;20112;-95
2022/07/03 05:35:16;;;;;;;1.17;0.90;;;;;;;23.54;52.51;93783.41;4986862;28;20030;-93
2022/07/03 05:37:44;;;;;;;1.10;1.00;;;;;;;23.57;52.38;93778.81;4994431;28;20048;-95
2022/07/03 05:40:10;;;;;;;1.02;1.00;;;;;;;23.55;52.60;93784.13;4982272;28;20038;-95
2022/07/03 05:42:36;;;;;;;1.33;0.90;;;;;;;23.57;52.38;93776.06;4969094;28;20258;-95
2022/07/03 05:45:02;;;;;;;1.15;0.82;;;;;;;23.56;52.45;93780.09;4991804;28;20034;-95
2022/07/03 05:47:27;;;;;;;0.80;0.80;;;;;;;23.61;52.22;93779.22;4964340;28;20042;-95
2022/07/03 05:49:55;;;;;;;90.72;73.20;;;;;;;23.60;52.10;93774.97;4974789;28;20049;-96
2022/07/03 05:52:29;;;;;;;110.40;89.88;;;;;;;23.60;52.40;93786.00;4968507;28;20014;-95
2022/07/03 05:54:58;;;;;;;113.78;78.72;;;;;;;23.60;52.33;93777.03;5199443;23;20052;-95
2022/07/03 05:57:37;;;;;;;47.63;39.17;;;;;;;23.63;52.35;93784.94;5012509;23;20090;-94
2022/07/03 06:00:28;;;;;;;3.30;2.70;;;;;;;23.63;52.25;93784.19;5079582;22;20044;-96
2022/07/03 06:05:32;;;;;;;1.70;1.13;;;;;;;23.66;52.15;93785.91;5127314;22;20060;-95
2022/07/03 06:08:03;;;;;;;1.40;1.00;;;;;;;23.67;52.08;93784.63;5033986;23;20024;-95
2022/07/03 06:10:53;;;;;;;1.90;1.10;;;;;;;23.70;52.16;93778.78;5069394;23;20037;-96
2022/07/03 06:14:12;;;;;;;1.80;1.53;;;;;;;23.64;52.26;93780.91;5092632;22;20029;-95
2022/07/03 06:16:45;;;;;;;1.98;1.40;;;;;;;23.67;52.10;93782.59;5108770;23;20028;-95
2022/07/03 06:19:14;;;;;;;2.35;1.75;;;;;;;23.68;52.07;93783.34;5068513;23;20041;-95
2022/07/03 06:24:09;;;;;;;2.00;1.70;;;;;;;23.69;52.10;93782.81;5109606;22;20061;-96
2022/07/03 06:26:55;;;;;;;2.15;1.80;;;;;;;23.70;52.02;93778.03;5199268;23;20029;-96
2022/07/03 06:29:20;;;;;;;2.53;1.63;;;;;;;23.70;51.90;93789.06;5331147;22;20015;-96
2022/07/03 06:32:12;;;;;;;1.60;1.20;;;;;;;23.69;52.07;93782.81;5348190;23;20036;-93
2022/07/03 06:34:55;;;;;;;2.30;1.70;;;;;;;23.71;52.06;93783.00;5039809;22;20049;-96
2022/07/03 06:37:29;;;;;;;1.73;1.52;;;;;;;23.72;52.12;93781.00;5150576;23;20036;-96
2022/07/03 06:40:07;;;;;;;1.90;1.65;;;;;;;23.71;51.91;93779.50;5074067;22;20056;-96
2022/07/03 06:42:41;;;;;;;2.17;1.85;;;;;;;23.75;51.98;93777.16;5335199;23;20037;-95
2022/07/03 06:45:27;;;;;;;1.73;1.52;;;;;;;23.77;51.81;93788.41;5091137;22;20037;-96
2022/07/03 06:51:04;;;;;;;2.17;1.50;;;;;;;23.80;51.77;93785.31;5184974;22;20104;-96
2022/07/03 06:54:06;;;;;;;1.40;1.13;;;;;;;23.79;51.92;93792.13;5123803;22;20088;-96
2022/07/03 06:56:45;;;;;;;1.80;1.52;;;;;;;23.80;51.88;93785.31;5122168;23;20066;-96
2022/07/03 06:59:11;;;;;;;1.60;1.25;;;;;;;23.88;51.53;93780.59;5074294;23;20114;-96
2022/07/03 07:01:49;;;;;;;2.10;1.50;;;;;;;23.86;51.80;93779.66;5119638;23;20037;-96
2022/07/03 07:04:20;;;;;;;1.63;1.30;;;;;;;23.84;51.67;93788.47;5100488;23;20052;-96
2022/07/03 07:06:48;;;;;;;1.65;1.27;;;;;;;23.83;52.07;93786.97;5044594;22;20022;-95
2022/07/03 07:09:15;;;;;;;1.90;1.60;;;;;;;23.83;51.73;93789.75;5087540;22;20075;-95
2022/07/03 07:14:05;;;;;;;1.80;1.30;;;;;;;23.83;51.56;93784.22;5292597;22;20032;-95
2022/07/03 07:16:35;;;;;;;2.30;1.83;;;;;;;23.85;51.58;93775.41;5115232;23;20048;-95
2022/07/03 07:19:04;;;;;;;2.07;1.50;;;;;;;23.82;51.96;93788.25;5138988;22;20467;-96
2022/07/03 07:21:33;;;;;;;1.83;1.33;;;;;;;23.82;51.72;93782.75;5073415;22;20329;-96
2022/07/03 07:24:10;;;;;;;1.52;1.42;;;;;;;23.80;51.76;93785.31;5072340;23;20036;-96
2022/07/03 07:26:55;;;;;;;1.38;1.27;;;;;;;23.79;52.01;93783.09;5043105;28;20017;-96
2022/07/03 07:34:39;;;;;;;1.17;1.08;;;;;;;23.78;51.80;93790.63;5096900;22;20033;-96
2022/07/03 07:37:25;;;;;;;1.35;1.20;;;;;;;23.79;51.77;93789.34;5163836;22;20122;-96
2022/07/03 07:39:53;;;;;;;1.65;1.30;;;;;;;23.78;51.68;93795.41;5084017;22;20056;-95
2022/07/03 07:42:24;;;;;;;1.77;1.42;;;;;;;23.78;51.91;93798.19;5022982;28;20032;-93
2022/07/03 07:45:22;;;;;;;;;;;;;;;;;;;;;
2022/07/03 07:51:12;;;;;;;1.63;1.10;;;;;;;23.78;52.05;93806.47;5269708;22;20040;-94
2022/07/03 07:54:21;;;;;;;1.30;1.20;;;;;;;23.77;51.66;93805.72;4985210;28;20580;-95
2022/07/03 07:56:48;;;;;;;1.67;1.25;;;;;;;23.79;51.83;93807.94;5017958;23;20025;-95
2022/07/03 07:59:30;;;;;;;1.85;1.60;;;;;;;23.75;51.57;93805.50;5062874;23;20076;-95
2022/07/03 08:07:11;;;;;;;1.48;1.15;;;;;;;23.76;52.06;93801.47;5057903;22;20061;-95
2022/07/03 08:09:56;;;;;;;1.73;1.45;;;;;;;23.79;51.83;93803.16;4475019;22;17767852;-95
2022/07/03 08:12:22;;;;;;;1.40;1.13;;;;;;;23.80;51.79;93801.88;5045710;23;20029;-95
2022/07/03 08:14:49;;;;;;;1.48;1.35;;;;;;;23.82;51.69;93801.31;5039209;23;20085;-95
2022/07/03 08:17:23;;;;;;;1.80;1.55;;;;;;;23.79;51.98;93808.69;5132107;23;20042;-96
2022/07/03 08:20:14;;;;;;;1.65;1.38;;;;;;;23.82;52.01;93809.59;5048244;23;20077;-95
2022/07/03 08:25:20;;;;;;;1.55;1.38;;;;;;;23.83;51.44;93800.78;6118781;22;20027;-96
2022/07/03 08:28:04;;;;;;;2.80;1.90;;;;;;;23.89;51.24;93800.66;5035639;28;20061;-95
2022/07/03 08:30:29;;;;;;;1.58;1.38;;;;;;;23.87;51.83;93803.97;4999645;28;20049;-94
2022/07/03 08:32:56;;;;;;;2.00;1.52;;;;;;;23.85;51.93;93805.78;5001751;28;20033;-92
2022/07/03 08:35:21;;;;;;;1.60;1.40;;;;;;;23.88;51.71;93802.69;5013162;28;20404;-93
2022/07/03 08:37:47;;;;;;;1.88;1.70;;;;;;;23.88;51.66;93810.22;4993156;28;20511;-93
2022/07/03 08:40:14;;;;;;;1.80;1.70;;;;;;;23.88;51.81;93807.47;5031872;28;20457;-93
2022/07/03 08:42:43;;;;;;;2.22;2.00;;;;;;;23.85;51.41;93814.81;5001971;28;20103;-93
2022/07/03 08:45:15;;;;;;;2.00;1.80;;;;;;;23.87;51.49;93809.47;4990169;28;20439;-94
2022/07/03 08:47:43;;;;;;;2.30;2.00;;;;;;;23.84;51.75;93807.78;5028854;28;20435;-94
2022/07/03 08:50:10;;;;;;;1.70;1.30;;;;;;;23.85;51.98;93808.53;4984989;28;20049;-94
2022/07/03 08:52:35;;;;;;;1.83;1.42;;;;;;;23.85;51.85;93806.50;4992233;28;20037;-91
2022/07/03 08:55:03;;;;;;;1.90;1.60;;;;;;;23.87;51.88;93817.03;4996591;28;20369;-93
2022/07/03 08:57:28;;;;;;;2.38;2.08;;;;;;;23.85;51.84;93814.81;4988260;28;20068;-93
2022/07/03 08:59:54;;;;;;;1.65;1.55;;;;;;;23.88;51.93;93818.50;5014492;28;20470;-93
2022/07/03 09:02:19;;;;;;;1.52;1.13;;;;;;;23.87;51.90;93817.78;5000957;28;20068;-93
2022/07/03 09:04:45;;;;;;;2.05;1.80;;;;;;;23.87;51.69;93823.28;5021353;28;20040;-92
2022/07/03 09:07:10;;;;;;;1.77;1.67;;;;;;;23.86;51.86;93816.28;5000588;28;20049;-93
2022/07/03 09:09:36;;;;;;;1.80;1.42;;;;;;;23.86;51.78;93816.28;4986812;28;20041;-93
2022/07/03 09:12:01;;;;;;;3.05;1.58;;;;;;;23.87;51.69;93808.75;5032060;28;20049;-94
2022/07/03 09:14:27;;;;;;;1.60;1.23;;;;;;;23.90;51.73;93819.47;4997888;28;20045;-92
2022/07/03 09:16:53;;;;;;;1.20;1.10;;;;;;;23.87;51.85;93811.50;4981123;28;20508;-92
2022/07/03 09:19:45;;;;;;;1.40;1.30;;;;;;;23.84;52.08;93807.78;4995633;28;20570;-93
2022/07/03 09:22:24;;;;;;;1.58;1.33;;;;;;;23.85;51.86;93814.81;5032236;28;20070;-93
2022/07/03 09:24:51;;;;;;;1.27;1.15;;;;;;;23.88;51.85;93815.75;5002070;28;20124;-93
2022/07/03 09:27:18;;;;;;;1.67;1.35;;;;;;;23.86;51.96;93813.53;4991482;28;20037;-94
2022/07/03 09:29:52;;;;;;;1.95;1.25;;;;;;;23.86;52.05;93816.28;5028704;28;20037;-93
2022/07/03 09:32:18;;;;;;;1.25;1.15;;;;;;;23.87;51.86;93814.25;4984843;28;20416;-92
2022/07/03 09:34:43;;;;;;;2.65;1.70;;;;;;;23.87;51.97;93808.75;5001299;28;20037;-92
2022/07/03 09:37:08;;;;;;;1.35;1.25;;;;;;;23.86;51.69;93816.28;4996308;28;20596;-94
2022/07/03 09:39:36;;;;;;;3.70;1.45;;;;;;;23.87;51.86;93814.25;4992741;28;20057;-93
2022/07/03 09:42:03;;;;;;;1.40;1.30;;;;;;;23.89;52.03;93814.47;5009035;28;20120;-93
2022/07/03 09:44:36;;;;;;;1.42;1.33;;;;;;;23.86;51.96;93815.53;4997713;28;20037;-93
2022/07/03 09:47:14;;;;;;;1.30;1.20;;;;;;;23.85;51.99;93809.28;4991567;28;20075;-92
2022/07/03 09:49:55;;;;;;;1.55;1.17;;;;;;;23.85;52.05;93806.50;4999427;28;20522;-92
2022/07/03 09:52:35;;;;;;;1.40;1.27;;;;;;;23.85;51.98;93808.53;4997366;28;20047;-93
2022/07/03 09:55:10;;;;;;;1.58;1.20;;;;;;;23.86;52.10;93808.00;5006502;28;20483;-92
2022/07/03 09:57:41;;;;;;;1.17;1.08;;;;;;;23.86;52.03;93808.00;5032709;28;20107;-93
2022/07/03 10:00:11;;;;;;;1.35;1.25;;;;;;;23.88;52.02;93816.50;4999632;28;20053;-93
2022/07/03 10:02:51;;;;;;;1.40;1.30;;;;;;;23.86;52.23;93804.50;5010789;28;20084;-93
2022/07/03 10:05:16;;;;;;;1.17;1.08;;;;;;;23.86;52.19;93810.03;5021756;28;20087;-93
2022/07/03 10:07:52;;;;;;;1.20;1.10;;;;;;;23.84;51.99;93812.56;4984825;28;20037;-93
2022/07/03 10:10:19;;;;;;;1.33;1.13;;;;;;;23.88;52.04;93808.22;5028202;28;20068;-92
2022/07/03 10:12:45;;;;;;;1.55;1.20;;;;;;;23.88;52.09;93810.22;4987337;28;20037;-93
2022/07/03 10:15:11;;;;;;;1.50;1.27;;;;;;;23.87;52.09;93808.75;5015407;28;20033;-94
2022/07/03 10:17:36;;;;;;;1.58;1.00;;;;;;;23.87;52.05;93812.25;5016363;28;20041;-93
2022/07/03 10:20:02;;;;;;;1.80;1.40;;;;;;;23.90;52.17;93804.91;4999209;28;20045;-92
2022/07/03 10:22:27;;;;;;;1.48;1.10;;;;;;;23.88;52.23;93810.97;4996277;28;20057;-93
2022/07/03 10:24:53;;;;;;;1.35;1.25;;;;;;;23.89;52.15;93809.69;4980446;28;20052;-94
2022/07/03 10:27:18;;;;;;;1.10;1.00;;;;;;;23.88;52.21;93799.19;4998737;28;20048;-93
2022/07/03 10:29:44;;;;;;;1.80;1.20;;;;;;;23.90;52.09;93800.13;5015909;28;20045;-93
2022/07/03 10:32:09;;;;;;;1.48;1.30;;;;;;;23.88;52.29;93807.47;4983163;28;20369;-94
2022/07/03 10:34:35;;;;;;;1.65;1.27;;;;;;;23.88;52.29;93804.69;4993804;28;20099;-94
2022/07/03 10:37:01;;;;;;;1.63;1.25;;;;;;;23.88;52.34;93802.69;5022085;28;20037;-92
2022/07/03 10:39:30;;;;;;;1.20;1.10;;;;;;;23.88;52.23;93796.41;4988874;28;20128;-93
2022/07/03 10:44:54;;;;;;;1.20;1.10;;;;;;;23.88;52.15;93797.16;5020938;28;20510;-93
2022/07/03 10:47:42;;;;;;;1.70;1.00;;;;;;;23.86;52.31;93794.19;4987163;28;20080;-92
2022/07/03 10:50:16;;;;;;;1.10;1.00;;;;;;;23.88;52.38;93796.41;5046282;28;20041;-94
2022/07/03 10:52:41;;;;;;;1.73;1.15;;;;;;;23.91;52.03;93795.34;4998955;28;20041;-93
2022/07/03 10:55:08;;;;;;;1.48;1.20;;;;;;;23.88;52.23;93788.13;4998582;28;20092;-93
2022/07/03 10:57:34;;;;;;;1.20;1.10;;;;;;;23.90;52.29;93793.88;4998585;28;20052;-93
2022/07/03 11:00:00;;;;;;;1.45;1.00;;;;;;;23.90;52.12;93793.88;4983450;28;20041;-94
2022/07/03 11:02:32;;;;;;;1.23;1.13;;;;;;;23.88;52.42;93794.41;4994669;28;20061;-93
2022/07/03 11:05:01;;;;;;;1.20;1.10;;;;;;;23.93;52.26;93799.06;4998529;28;20040;-93
2022/07/03 11:07:44;;;;;;;1.58;1.10;;;;;;;23.87;52.45;93789.41;5030428;28;20033;-93
2022/07/03 11:10:10;;;;;;;2.33;1.55;;;;;;;23.89;52.47;93784.09;4998204;28;20029;-92
2022/07/03 11:12:55;;;;;;;1.13;1.00;;;;;;;23.87;52.40;93775.59;5026867;28;20044;-93
2022/07/03 11:15:45;;;;;;;1.27;0.90;;;;;;;23.86;52.37;93780.38;5030658;28;20041;-93
2022/07/03 11:18:33;;;;;;;1.63;1.17;;;;;;;23.89;52.44;93784.09;5029974;28;20100;-93
2022/07/03 11:21:07;;;;;;;1.52;1.17;;;;;;;23.89;52.29;93770.28;5014504;28;20044;-93
2022/07/03 11:23:35;;;;;;;0.90;0.80;;;;;;;23.89;52.31;93779.31;5016862;28;20108;-93
2022/07/03 11:26:18;;;;;;;1.08;0.98;;;;;;;23.88;52.65;93780.59;5028439;28;20405;-93
2022/07/03 11:28:44;;;;;;;1.02;0.80;;;;;;;23.91;52.33;93779.53;4995098;28;20065;-93
2022/07/03 11:31:18;;;;;;;1.33;1.00;;;;;;;23.90;52.28;93778.03;5021028;28;20072;-93
2022/07/03 11:33:53;;;;;;;1.00;0.90;;;;;;;23.90;52.35;93777.28;5027326;28;20048;-93
2022/07/03 11:36:20;;;;;;;1.70;1.20;;;;;;;23.89;52.33;93771.03;5026100;28;20173;-93
2022/07/03 11:39:11;;;;;;;;;;;;;;;;;;;;;
2022/07/03 11:41:50;;;;;;;1.02;0.93;;;;;;;23.90;52.49;93769.75;4941118;28;21557;-94
2022/07/03 11:44:21;;;;;;;1.45;1.25;;;;;;;23.88;52.55;93766.78;4987440;28;20104;-93
2022/07/03 11:46:57;;;;;;;0.77;0.70;;;;;;;23.89;52.50;93771.03;4988647;28;20128;-93
2022/07/03 11:49:47;;;;;;;1.10;1.00;;;;;;;23.88;52.60;93772.31;4981529;28;20059;-93
2022/07/03 11:52:33;;;;;;;1.00;0.80;;;;;;;23.89;52.33;93770.28;4987305;28;20037;-94
2022/07/03 11:55:08;;;;;;;1.27;1.02;;;;;;;23.89;52.45;93764.78;4920772;28;20067;-94
2022/07/03 11:57:43;;;;;;;1.10;1.00;;;;;;;23.89;52.60;93764.78;4895675;29;20039;-95
2022/07/03 12:00:22;;;;;;;1.30;1.08;;;;;;;23.89;52.40;93762.75;4913490;29;20224;-94
2022/07/03 12:03:21;;;;;;;;;;;;;;;;;;;;;
2022/07/03 12:06:05;;;;;;;1.23;1.00;;;;;;;23.88;52.57;93757.75;4918543;28;20087;-95
2022/07/03 12:08:47;;;;;;;0.88;0.77;;;;;;;23.90;52.45;93752.44;4881307;29;20551;-93
2022/07/03 12:11:23;;;;;;;0.85;0.85;;;;;;;23.89;52.56;93748.94;4894066;29;20040;-94
2022/07/03 12:13:59;;;;;;;;;;;;;;;;;;;;;
2022/07/03 12:17:06;;;;;;;1.00;0.80;;;;;;;23.87;52.53;93745.97;4918199;28;21172;-94
2022/07/03 12:20:24;;;;;;;;;;;;;;;;;;;;;
2022/07/03 12:23:02;;;;;;;0.95;0.60;;;;;;;23.88;52.59;93746.72;4737890;30;20357;-95
2022/07/03 12:25:58;;;;;;;1.20;0.70;;;;;;;23.88;52.53;93746.72;4762758;29;20061;-93
2022/07/03 12:28:50;;;;;;;0.98;0.73;;;;;;;23.91;52.62;93751.91;4752078;29;20068;-94
2022/07/03 12:31:38;;;;;;;1.63;1.00;;;;;;;23.92;52.34;93747.13;4805083;29;20461;-93